createdAt,value
2023-01-28T00:00:55.440Z,56.93
2023-01-28T00:03:22.824Z,56.71
2023-01-28T00:05:50.174Z,57.02
2023-01-28T00:08:17.340Z,56.73
2023-01-28T00:10:44.809Z,56.79
2023-01-28T00:13:13.667Z,56.58
2023-01-28T00:15:41.080Z,56.88
2023-01-28T00:18:08.295Z,56.82
2023-01-28T00:20:35.445Z,56.14
2023-01-28T00:23:02.986Z,56.55
2023-01-28T00:25:31.580Z,56.17
2023-01-28T00:27:58.729Z,56.49
2023-01-28T00:30:25.984Z,56.62
2023-01-28T00:32:54.688Z,56.38
2023-01-28T00:35:22.004Z,56.17
2023-01-28T00:37:49.186Z,55.98
2023-01-28T00:40:17.013Z,56.13
2023-01-28T00:42:44.225Z,56.13
2023-01-28T00:45:11.819Z,56.32
2023-01-28T00:47:39.067Z,56.34
2023-01-28T00:50:07.025Z,55.97
2023-01-28T00:52:34.339Z,56.44
2023-01-28T00:55:01.593Z,56.03
2023-01-28T00:57:28.797Z,56.35
2023-01-28T00:59:56.072Z,55.59
2023-01-28T01:02:23.498Z,55.47
2023-01-28T01:04:50.932Z,55.81
2023-01-28T01:07:18.248Z,55.13
2023-01-28T01:09:45.428Z,55.58
2023-01-28T01:12:12.590Z,55.30
2023-01-28T01:14:39.802Z,55.41
2023-01-28T01:17:06.972Z,55.44
2023-01-28T01:19:34.130Z,55.31
2023-01-28T01:22:01.366Z,55.36
2023-01-28T01:24:28.706Z,54.98
2023-01-28T01:26:55.895Z,54.86
2023-01-28T01:29:23.487Z,54.88
2023-01-28T01:31:50.879Z,55.07
2023-01-28T01:34:18.082Z,54.96
2023-01-28T01:36:45.234Z,54.87
2023-01-28T01:39:15.251Z,55.04
2023-01-28T01:41:42.440Z,54.50
2023-01-28T01:44:57.025Z,54.66
2023-01-28T01:48:02.314Z,54.59
2023-01-28T01:50:46.148Z,54.15
2023-01-28T01:53:19.407Z,54.35
2023-01-28T01:55:51.219Z,54.27
2023-01-28T01:58:24.423Z,54.05
2023-01-28T02:00:52.122Z,53.67
2023-01-28T02:03:31.897Z,53.80
2023-01-28T02:05:59.378Z,54.52
2023-01-28T02:08:26.639Z,53.93
2023-01-28T02:11:04.473Z,53.80
2023-01-28T02:13:42.993Z,54.00
2023-01-28T02:16:12.384Z,54.07
2023-01-28T02:18:39.690Z,54.13
2023-01-28T02:21:55.464Z,53.51
2023-01-28T02:25:07.293Z,53.49
2023-01-28T02:28:09.693Z,53.05
2023-01-28T02:30:53.821Z,52.68
2023-01-28T02:33:45.185Z,53.12
2023-01-28T02:36:42.136Z,53.62
2023-01-28T02:39:18.640Z,52.67
2023-01-28T02:42:06.520Z,53.08
2023-01-28T02:44:33.893Z,53.20
2023-01-28T02:47:01.113Z,52.74
2023-01-28T02:49:41.300Z,52.65
2023-01-28T02:52:39.156Z,52.45
2023-01-28T02:55:54.269Z,52.35
2023-01-28T02:58:43.044Z,52.92
2023-01-28T03:01:16.682Z,53.09
2023-01-28T03:04:04.815Z,52.37
2023-01-28T03:06:45.896Z,52.48
2023-01-28T03:09:17.729Z,51.91
2023-01-28T03:11:52.835Z,52.18
2023-01-28T03:14:22.404Z,52.32
2023-01-28T03:16:51.792Z,52.37
2023-01-28T03:19:21.085Z,52.19
2023-01-28T03:21:49.523Z,51.80
2023-01-28T03:24:48.650Z,52.09
2023-01-28T03:27:34.307Z,52.18
2023-01-28T03:30:11.451Z,51.71
2023-01-28T03:32:42.165Z,51.94
2023-01-28T03:35:16.192Z,52.13
2023-01-28T03:37:43.799Z,51.91
2023-01-28T03:40:20.936Z,51.66
2023-01-28T03:42:48.198Z,51.67
2023-01-28T03:45:15.851Z,51.67
2023-01-28T03:47:43.292Z,51.09
2023-01-28T03:50:11.157Z,51.44
2023-01-28T03:52:38.403Z,51.42
2023-01-28T03:55:06.568Z,51.84
2023-01-28T03:57:33.723Z,51.59
2023-01-28T04:00:00.915Z,51.51
2023-01-28T04:02:28.252Z,51.02
2023-01-28T04:04:55.438Z,51.43
2023-01-28T04:07:22.663Z,50.99
2023-01-28T04:09:49.984Z,51.31
2023-01-28T04:12:17.208Z,51.59
2023-01-28T04:14:44.362Z,51.50
2023-01-28T04:17:11.476Z,51.08
2023-01-28T04:19:38.748Z,50.97
2023-01-28T04:22:10.797Z,51.33
2023-01-28T04:24:38.127Z,51.32
2023-01-28T04:27:05.464Z,51.23
2023-01-28T04:29:32.776Z,51.06
2023-01-28T04:31:59.994Z,50.95
2023-01-28T04:34:27.163Z,50.84
2023-01-28T04:36:54.304Z,51.12
2023-01-28T04:39:21.492Z,51.10
2023-01-28T04:41:48.713Z,51.04
2023-01-28T04:44:16.000Z,51.30
2023-01-28T04:46:43.403Z,50.94
2023-01-28T04:49:10.733Z,51.07
2023-01-28T04:51:37.991Z,50.89
2023-01-28T04:54:05.261Z,50.67
2023-01-28T04:56:32.447Z,50.40
2023-01-28T04:58:59.724Z,50.37
2023-01-28T05:01:27.033Z,50.76
2023-01-28T05:03:54.401Z,50.94
2023-01-28T05:06:21.652Z,50.28
2023-01-28T05:08:48.808Z,49.91
2023-01-28T05:11:16.054Z,50.48
2023-01-28T05:13:43.226Z,51.22
2023-01-28T05:16:10.380Z,50.66
2023-01-28T05:18:37.614Z,50.54
2023-01-28T05:21:05.212Z,50.75
2023-01-28T05:23:32.441Z,50.75
2023-01-28T05:25:59.922Z,50.24
2023-01-28T05:28:27.140Z,50.91
2023-01-28T05:30:54.270Z,50.52
2023-01-28T05:33:21.570Z,50.65
2023-01-28T05:35:48.791Z,50.92
2023-01-28T05:38:16.067Z,51.33
2023-01-28T05:40:43.617Z,50.78
2023-01-28T05:43:10.786Z,50.81
2023-01-28T05:45:37.966Z,51.03
2023-01-28T05:48:06.101Z,51.22
2023-01-28T05:50:33.609Z,50.52
2023-01-28T05:53:00.763Z,50.33
2023-01-28T05:55:27.884Z,50.49
2023-01-28T05:57:55.088Z,50.49
2023-01-28T06:00:22.531Z,49.78
2023-01-28T06:02:53.171Z,50.35
2023-01-28T06:05:21.044Z,50.40
2023-01-28T06:07:49.112Z,50.60
2023-01-28T06:10:17.351Z,50.52
2023-01-28T06:12:45.348Z,50.49
2023-01-28T06:15:12.719Z,50.78
2023-01-28T06:17:40.094Z,50.03
2023-01-28T06:20:08.359Z,50.52
2023-01-28T06:22:35.803Z,51.08
2023-01-28T06:25:03.406Z,50.74
2023-01-28T06:27:30.846Z,50.51
2023-01-28T06:29:57.953Z,50.26
2023-01-28T06:32:25.274Z,50.63
2023-01-28T06:34:52.362Z,50.71
2023-01-28T06:37:19.818Z,50.66
2023-01-28T06:39:47.003Z,50.25
2023-01-28T06:42:14.171Z,50.70
2023-01-28T06:44:41.365Z,50.45
2023-01-28T06:47:08.907Z,50.46
2023-01-28T06:49:36.222Z,50.69
2023-01-28T06:52:03.686Z,50.71
2023-01-28T06:54:31.004Z,50.39
2023-01-28T06:56:58.801Z,50.02
2023-01-28T06:59:26.265Z,50.89
2023-01-28T07:01:53.520Z,50.77
2023-01-28T07:04:20.675Z,50.85
2023-01-28T07:06:48.109Z,50.70
2023-01-28T07:09:15.248Z,50.81
2023-01-28T07:11:42.433Z,51.08
2023-01-28T07:14:09.994Z,50.96
2023-01-28T07:16:37.286Z,50.59
2023-01-28T07:19:04.504Z,50.94
2023-01-28T07:21:31.629Z,51.31
2023-01-28T07:23:59.098Z,50.83
2023-01-28T07:26:26.424Z,50.78
2023-01-28T07:28:53.595Z,50.69
2023-01-28T07:31:20.890Z,50.84
2023-01-28T07:33:48.341Z,51.15
2023-01-28T07:36:15.621Z,51.32
2023-01-28T07:38:42.759Z,51.48
2023-01-28T07:41:09.877Z,51.46
2023-01-28T07:43:37.064Z,51.69
2023-01-28T07:46:04.404Z,50.99
2023-01-28T07:48:31.597Z,51.48
2023-01-28T07:51:00.329Z,51.80
2023-01-28T07:53:27.559Z,51.20
2023-01-28T07:56:01.030Z,51.63
2023-01-28T07:58:28.312Z,51.90
2023-01-28T08:00:58.863Z,51.70
2023-01-28T08:03:27.667Z,52.33
2023-01-28T08:05:57.012Z,51.70
2023-01-28T08:08:26.271Z,52.16
2023-01-28T08:10:54.141Z,51.94
2023-01-28T08:13:21.324Z,51.56
2023-01-28T08:15:48.849Z,51.53
2023-01-28T08:18:17.010Z,51.45
2023-01-28T08:20:44.590Z,51.70
2023-01-28T08:23:17.600Z,51.88
2023-01-28T08:25:46.399Z,52.02
2023-01-28T08:28:15.343Z,51.80
2023-01-28T08:30:42.952Z,51.65
2023-01-28T08:33:14.223Z,52.36
2023-01-28T08:35:41.766Z,52.48
2023-01-28T08:38:11.966Z,52.14
2023-01-28T08:40:40.690Z,52.37
2023-01-28T08:43:08.025Z,52.57
2023-01-28T08:45:35.432Z,53.22
2023-01-28T08:48:05.785Z,53.33
2023-01-28T08:50:37.682Z,52.85
2023-01-28T08:53:18.640Z,52.67
2023-01-28T08:55:47.495Z,53.00
2023-01-28T08:58:18.237Z,52.59
2023-01-28T09:00:46.542Z,52.74
2023-01-28T09:03:13.823Z,52.63
2023-01-28T09:05:41.187Z,52.45
2023-01-28T09:08:15.020Z,52.89
2023-01-28T09:10:43.194Z,53.12
2023-01-28T09:13:14.769Z,53.08
2023-01-28T09:15:43.282Z,53.31
2023-01-28T09:18:11.035Z,53.67
2023-01-28T09:20:38.834Z,53.55
2023-01-28T09:23:07.083Z,52.99
2023-01-28T09:25:35.150Z,53.24
2023-01-28T09:28:03.426Z,53.61
2023-01-28T09:30:31.382Z,53.45
2023-01-28T09:32:58.644Z,53.17
2023-01-28T09:35:26.037Z,53.29
2023-01-28T09:37:58.595Z,53.50
2023-01-28T09:40:46.204Z,53.12
2023-01-28T09:43:47.241Z,52.57
2023-01-28T09:46:16.910Z,53.21
2023-01-28T09:48:49.602Z,53.02
2023-01-28T09:51:41.797Z,52.89
2023-01-28T09:54:21.815Z,52.24
2023-01-28T09:56:54.929Z,52.29
2023-01-28T09:59:23.531Z,51.99
2023-01-28T10:01:58.860Z,52.36
2023-01-28T10:04:48.867Z,51.72
2023-01-28T10:07:34.900Z,52.03
2023-01-28T10:10:08.959Z,51.74
2023-01-28T10:13:00.364Z,51.79
2023-01-28T10:16:10.087Z,51.38
2023-01-28T10:18:50.908Z,51.80
2023-01-28T10:21:26.562Z,51.44
2023-01-28T10:23:58.240Z,51.17
2023-01-28T10:26:35.782Z,51.48
2023-01-28T10:29:17.382Z,51.00
2023-01-28T10:32:22.635Z,50.84
2023-01-28T10:34:52.612Z,50.99
2023-01-28T10:37:21.136Z,51.16
2023-01-28T10:39:48.830Z,51.02
2023-01-28T10:42:38.553Z,50.66
2023-01-28T10:45:27.002Z,50.43
2023-01-28T10:48:07.629Z,50.47
2023-01-28T10:50:35.156Z,50.16
2023-01-28T10:53:05.989Z,50.17
2023-01-28T10:55:58.431Z,49.58
2023-01-28T10:58:30.382Z,48.94
2023-01-28T11:01:03.367Z,49.50
2023-01-28T11:03:31.568Z,48.91
2023-01-28T11:05:59.855Z,48.29
2023-01-28T11:08:30.277Z,48.40
2023-01-28T11:10:58.264Z,48.73
2023-01-28T11:13:30.590Z,48.55
2023-01-28T11:16:14.880Z,48.60
2023-01-28T11:18:54.484Z,48.36
2023-01-28T11:21:31.555Z,48.59
2023-01-28T11:24:14.398Z,49.24
2023-01-28T11:26:50.817Z,49.46
2023-01-28T11:29:39.085Z,50.15
2023-01-28T11:32:21.098Z,50.56
2023-01-28T11:34:58.631Z,50.88
2023-01-28T11:37:32.424Z,51.45
2023-01-28T11:40:21.397Z,51.50
2023-01-28T11:42:51.887Z,51.42
2023-01-28T11:45:53.161Z,50.56
2023-01-28T11:48:50.922Z,51.08
2023-01-28T11:51:49.460Z,52.17
2023-01-28T11:54:54.972Z,52.17
2023-01-28T11:57:31.703Z,52.13
2023-01-28T12:01:01.287Z,51.95
2023-01-28T12:03:48.044Z,52.39
2023-01-28T12:07:05.679Z,51.67
2023-01-28T12:09:52.640Z,51.51
2023-01-28T12:12:45.821Z,50.66
2023-01-28T12:15:40.994Z,48.68
2023-01-28T12:18:46.433Z,45.82
2023-01-28T12:21:45.754Z,43.87
2023-01-28T12:24:34.413Z,42.40
2023-01-28T12:27:25.911Z,41.51
2023-01-28T12:30:22.321Z,40.63
2023-01-28T12:33:41.553Z,40.99
2023-01-28T12:36:30.104Z,42.63
2023-01-28T12:40:00.765Z,43.35
2023-01-28T12:42:42.192Z,45.09
2023-01-28T12:45:15.847Z,45.65
2023-01-28T12:47:54.743Z,46.54
2023-01-28T12:51:14.687Z,47.32
2023-01-28T12:54:02.512Z,48.61
2023-01-28T12:56:38.302Z,49.20
2023-01-28T12:59:22.474Z,49.57
2023-01-28T13:02:12.515Z,49.40
2023-01-28T13:04:54.489Z,50.13
2023-01-28T13:07:35.385Z,50.21
2023-01-28T13:10:40.232Z,51.25
2023-01-28T13:13:13.776Z,51.36
2023-01-28T13:15:44.421Z,51.57
2023-01-28T13:18:42.420Z,51.62
2023-01-28T13:21:39.957Z,52.26
2023-01-28T13:24:11.058Z,52.14
2023-01-28T13:26:47.368Z,52.47
2023-01-28T13:29:14.709Z,52.02
2023-01-28T13:31:51.847Z,52.38
2023-01-28T13:34:39.891Z,52.83
2023-01-28T13:37:46.203Z,53.16
2023-01-28T13:40:13.355Z,53.09
2023-01-28T13:42:42.003Z,53.44
2023-01-28T13:45:23.420Z,53.27
2023-01-28T13:48:27.006Z,53.67
2023-01-28T13:51:02.646Z,53.68
2023-01-28T13:54:26.870Z,53.90
2023-01-28T13:58:12.743Z,54.38
2023-01-28T14:01:29.124Z,53.76
2023-01-28T14:04:11.660Z,53.60
2023-01-28T14:07:10.845Z,54.26
2023-01-28T14:10:34.890Z,54.15
2023-01-28T14:13:26.145Z,54.15
2023-01-28T14:15:56.313Z,54.19
2023-01-28T14:18:35.319Z,54.12
2023-01-28T14:21:11.697Z,54.37
2023-01-28T14:23:47.356Z,53.90
2023-01-28T14:27:02.658Z,54.11
2023-01-28T14:30:16.026Z,54.37
2023-01-28T14:32:50.760Z,54.17
2023-01-28T14:35:35.120Z,54.66
2023-01-28T14:38:12.974Z,54.31
2023-01-28T14:40:41.070Z,54.55
2023-01-28T14:43:18.039Z,54.56
2023-01-28T14:46:10.202Z,54.72
2023-01-28T14:48:42.996Z,54.48
2023-01-28T14:51:30.296Z,54.55
2023-01-28T14:54:50.664Z,54.01
2023-01-28T14:57:44.965Z,53.68
2023-01-28T15:00:25.957Z,53.97
2023-01-28T15:02:53.484Z,54.25
2023-01-28T15:05:28.647Z,54.20
2023-01-28T15:07:57.109Z,54.26
2023-01-28T15:10:36.808Z,54.01
2023-01-28T15:13:26.759Z,54.04
2023-01-28T15:15:56.558Z,54.05
2023-01-28T15:18:45.073Z,53.50
2023-01-28T15:21:13.236Z,53.01
2023-01-28T15:23:43.325Z,52.46
2023-01-28T15:26:22.388Z,52.29
2023-01-28T15:28:51.873Z,51.94
2023-01-28T15:31:29.254Z,51.96
2023-01-28T15:34:01.037Z,52.17
2023-01-28T15:36:29.471Z,52.37
2023-01-28T15:38:57.864Z,52.03
2023-01-28T15:41:34.762Z,52.23
2023-01-28T15:44:02.924Z,51.71
2023-01-28T15:46:31.579Z,52.02
2023-01-28T15:49:04.000Z,52.00
2023-01-28T15:51:33.623Z,52.06
2023-01-28T15:54:08.827Z,51.72
2023-01-28T15:56:37.367Z,52.20
2023-01-28T15:59:24.043Z,52.08
2023-01-28T16:01:51.361Z,52.10
2023-01-28T16:04:32.227Z,52.55
2023-01-28T16:07:05.232Z,52.50
2023-01-28T16:09:35.385Z,52.59
2023-01-28T16:12:14.690Z,52.40
2023-01-28T16:14:45.753Z,52.54
2023-01-28T16:17:42.184Z,52.53
2023-01-28T16:20:26.060Z,52.80
2023-01-28T16:23:00.502Z,52.78
2023-01-28T16:25:36.452Z,52.90
2023-01-28T16:28:20.327Z,52.78
2023-01-28T16:30:47.950Z,52.60
2023-01-28T16:33:24.709Z,52.79
2023-01-28T16:36:06.495Z,53.02
2023-01-28T16:38:38.468Z,52.99
2023-01-28T16:41:06.067Z,53.25
2023-01-28T16:46:09.207Z,53.20
2023-01-28T16:48:37.008Z,53.23
2023-01-28T16:51:05.217Z,52.92
2023-01-28T16:53:34.761Z,53.17
2023-01-28T16:56:02.472Z,53.01
2023-01-28T16:58:30.436Z,53.55
2023-01-28T17:00:57.799Z,53.51
2023-01-28T17:03:27.411Z,53.76
2023-01-28T17:05:54.654Z,53.84
2023-01-28T17:08:21.991Z,54.09
2023-01-28T17:10:58.280Z,53.86
2023-01-28T17:13:25.996Z,54.22
2023-01-28T17:15:53.329Z,53.90
2023-01-28T17:18:20.607Z,53.95
2023-01-28T17:20:48.063Z,54.17
2023-01-28T17:23:17.861Z,54.28
2023-01-28T17:25:45.155Z,54.22
2023-01-28T17:28:12.403Z,53.61
2023-01-28T17:30:42.228Z,53.58
2023-01-28T17:33:09.793Z,53.63
2023-01-28T17:35:37.283Z,53.34
2023-01-28T17:38:05.656Z,53.45
2023-01-28T17:40:33.176Z,53.18
2023-01-28T17:43:00.394Z,53.12
2023-01-28T17:45:31.602Z,53.32
2023-01-28T17:47:59.286Z,53.24
2023-01-28T17:50:26.584Z,53.19
2023-01-28T17:52:58.102Z,52.80
2023-01-28T17:55:26.061Z,52.96
2023-01-28T17:57:53.497Z,52.61
2023-01-28T18:00:21.550Z,52.53
2023-01-28T18:02:51.721Z,52.62
2023-01-28T18:05:20.064Z,52.49
2023-01-28T18:07:48.086Z,52.71
2023-01-28T18:10:15.480Z,53.04
2023-01-28T18:12:43.049Z,52.44
2023-01-28T18:15:11.337Z,52.77
2023-01-28T18:17:38.671Z,52.39
2023-01-28T18:20:06.832Z,52.70
2023-01-28T18:22:37.229Z,53.04
2023-01-28T18:25:05.557Z,52.74
2023-01-28T18:27:32.901Z,52.49
2023-01-28T18:30:00.111Z,52.61
2023-01-28T18:32:27.388Z,52.89
2023-01-28T18:34:54.637Z,52.88
2023-01-28T18:37:21.874Z,52.81
2023-01-28T18:39:49.141Z,52.95
2023-01-28T18:42:16.360Z,52.82
2023-01-28T18:44:43.585Z,53.42
2023-01-28T18:47:10.866Z,52.86
2023-01-28T18:49:38.147Z,52.71
2023-01-28T18:52:05.795Z,53.03
2023-01-28T18:54:33.252Z,52.30
2023-01-28T18:57:00.738Z,52.42
2023-01-28T18:59:28.279Z,52.60
2023-01-28T19:01:55.518Z,52.13
2023-01-28T19:04:22.739Z,52.53
2023-01-28T19:06:50.051Z,52.61
2023-01-28T19:09:17.921Z,53.06
2023-01-28T19:11:45.284Z,52.83
2023-01-28T19:14:14.943Z,52.48
2023-01-28T19:16:43.557Z,52.77
2023-01-28T19:19:11.439Z,52.72
2023-01-28T19:21:38.744Z,52.68
2023-01-28T19:24:08.349Z,52.51
2023-01-28T19:26:36.910Z,52.46
2023-01-28T19:29:08.480Z,52.59
2023-01-28T19:31:37.050Z,52.38
2023-01-28T19:34:04.952Z,52.92
2023-01-28T19:36:34.241Z,52.78
2023-01-28T19:39:05.566Z,52.48
2023-01-28T19:41:33.072Z,52.98
2023-01-28T19:44:00.382Z,53.11
2023-01-28T19:46:28.373Z,52.31
2023-01-28T19:48:55.758Z,52.81
2023-01-28T19:51:24.268Z,52.35
2023-01-28T19:53:53.779Z,52.40
2023-01-28T19:56:23.898Z,52.49
2023-01-28T19:58:53.972Z,52.05
2023-01-28T20:01:29.921Z,52.14
2023-01-28T20:04:00.058Z,52.22
2023-01-28T20:06:30.387Z,51.99
2023-01-28T20:09:13.858Z,52.55
2023-01-28T20:11:41.132Z,52.03
2023-01-28T20:14:08.288Z,52.17
2023-01-28T20:16:36.058Z,52.08
2023-01-28T20:19:08.821Z,51.88
2023-01-28T20:21:36.823Z,52.05
2023-01-28T20:24:04.597Z,52.14
2023-01-28T20:26:37.202Z,52.12
2023-01-28T20:29:14.848Z,51.86
2023-01-28T20:31:42.999Z,52.17
2023-01-28T20:34:19.409Z,52.20
2023-01-28T20:36:47.547Z,51.57
2023-01-28T20:39:15.057Z,51.95
2023-01-28T20:41:42.640Z,51.62
2023-01-28T20:44:10.013Z,51.83
2023-01-28T20:46:37.528Z,52.08
2023-01-28T20:49:05.149Z,51.47
2023-01-28T20:51:35.730Z,51.52
2023-01-28T20:54:03.996Z,51.53
2023-01-28T20:56:31.995Z,51.41
2023-01-28T20:59:02.326Z,51.76
2023-01-28T21:01:33.304Z,51.79
2023-01-28T21:04:01.286Z,51.50
2023-01-28T21:06:30.050Z,51.45
2023-01-28T21:08:59.345Z,51.96
2023-01-28T21:11:27.568Z,51.52
2023-01-28T21:13:55.534Z,51.37
2023-01-28T21:16:23.634Z,51.06
2023-01-28T21:18:51.145Z,51.80
2023-01-28T21:21:21.948Z,51.25
2023-01-28T21:23:49.761Z,51.92
2023-01-28T21:26:17.575Z,51.29
2023-01-28T21:28:45.306Z,51.05
2023-01-28T21:31:21.612Z,51.06
2023-01-28T21:33:51.205Z,51.37
2023-01-28T21:36:19.345Z,51.38
2023-01-28T21:38:57.987Z,50.91
2023-01-28T21:41:26.509Z,51.37
2023-01-28T21:43:55.706Z,51.93
2023-01-28T21:46:27.300Z,52.36
2023-01-28T21:49:02.994Z,51.92
2023-01-28T21:51:31.107Z,52.14
2023-01-28T21:53:58.608Z,52.51
2023-01-28T21:56:25.827Z,52.04
2023-01-28T21:58:52.973Z,51.44
2023-01-28T22:01:20.236Z,51.40
2023-01-28T22:03:47.879Z,51.62
2023-01-28T22:06:15.488Z,51.17
2023-01-28T22:08:42.750Z,51.42
2023-01-28T22:11:10.583Z,51.13
2023-01-28T22:13:37.707Z,51.54
2023-01-28T22:16:06.215Z,51.50
2023-01-28T22:18:33.632Z,51.55
2023-01-28T22:21:07.276Z,51.64
2023-01-28T22:23:35.584Z,51.54
2023-01-28T22:26:03.135Z,51.96
2023-01-28T22:28:30.700Z,50.87
2023-01-28T22:31:11.974Z,51.33
2023-01-28T22:33:40.562Z,51.37
2023-01-28T22:36:16.054Z,51.19
2023-01-28T22:38:45.309Z,51.13
2023-01-28T22:41:18.867Z,51.49
2023-01-28T22:43:47.183Z,51.21
2023-01-28T22:46:15.460Z,51.57
2023-01-28T22:48:42.716Z,51.04
2023-01-28T22:51:15.721Z,50.79
2023-01-28T22:53:43.717Z,51.40
2023-01-28T22:56:11.700Z,50.62
2023-01-28T22:58:39.631Z,50.76
2023-01-28T23:01:07.767Z,50.86
2023-01-28T23:03:35.402Z,51.04
2023-01-28T23:06:05.139Z,51.27
2023-01-28T23:08:32.967Z,51.93
2023-01-28T23:11:02.877Z,51.50
2023-01-28T23:13:30.740Z,51.55
2023-01-28T23:15:57.993Z,51.35
2023-01-28T23:18:25.572Z,51.78
2023-01-28T23:20:53.036Z,51.27
2023-01-28T23:23:20.216Z,51.22
2023-01-28T23:25:47.639Z,51.42
2023-01-28T23:28:15.695Z,51.49
2023-01-28T23:30:43.524Z,51.54
2023-01-28T23:33:10.824Z,51.19
2023-01-28T23:35:38.254Z,51.54
2023-01-28T23:38:05.612Z,51.41
2023-01-28T23:40:32.807Z,51.61
2023-01-28T23:43:00.037Z,50.93
2023-01-28T23:45:27.244Z,51.42
2023-01-28T23:47:54.456Z,51.09
2023-01-28T23:50:21.761Z,51.23
2023-01-28T23:52:49.401Z,51.41
2023-01-28T23:55:16.689Z,51.06
2023-01-28T23:57:44.021Z,51.31
